Terminal Aerodrome Forecast
Issued by NWS Pueblo, CO

Home | Current Version | Previous Version | Text Only | Print | Product List | Glossary On
Versions: 1 2 3 4 5 6 7 8 9 10 11 12 13 14 15 16 17 18 19 20 21 22 23 24 25 26 27 28 29 30 31 32 33 34
000
FTUS45 KPUB 021120
TAFCOS
TAF
KCOS 021120Z 0212/0312 35007KT P6SM BKN200
     FM021600 15008KT P6SM SCT150 BKN200
     FM022100 14013KT P6SM VCTS SCT040CB BKN090
     FM030400 03007KT P6SM BKN100=

USA.gov is the U.S. government's official web portal to all federal, state and local government web resources and services.